| time (UTC) | temp F | wind direction | speed knots | gust knots | rain 1hr in | rain 24hr in | rain mn in | humidity % | barometer mb |
| 20260509200952 | 56 | 334 | 0.9 | 4.3 | 0.00 | 0.37 | 0.37 | 96 | 1009.5 |
| 20260509200446 | 55 | 336 | 0.9 | 1.7 | 0.00 | 0.37 | 0.37 | 96 | 1009.6 |
| 20260509195943 | 55 | 30 | 0.9 | 0.9 | 0.00 | 0.37 | 0.37 | 98 | 1009.7 |
| 20260509195433 | 54 | 13 | 0.0 | 1.7 | 0.00 | 0.37 | 0.37 | 98 | 1009.7 |
| 20260509194932 | 55 | 3 | 0.0 | 0.9 | 0.00 | 0.37 | 0.37 | 97 | 1009.7 |
| 20260509194428 | 55 | 98 | 0.9 | 4.3 | 0.07 | 0.37 | 0.37 | 97 | 1009.8 |
| 20260509193926 | 55 | 21 | 0.9 | 0.9 | 0.07 | 0.37 | 0.37 | 98 | 1009.8 |
| 20260509193425 | 55 | 42 | 0.9 | 0.9 | 0.05 | 0.36 | 0.36 | 99 | 1010.2 |
| 20260509192921 | 55 | 96 | 0.9 | 1.7 | 0.05 | 0.36 | 0.36 | 98 | 1010.0 |
| 20260509192418 | 54 | 37 | 0.0 | 1.7 | 0.00 | 0.35 | 0.35 | 98 | 1010.1 |
| 20260509191913 | 54 | 94 | 1.7 | 1.7 | 0.00 | 0.35 | 0.35 | 97 | 1010.1 |
| 20260509191409 | 55 | 109 | 1.7 | 2.6 | 0.00 | 0.35 | 0.35 | 98 | 1010.1 |
| 20260509190905 | 54 | 40 | 0.9 | 1.7 | 0.00 | 0.35 | 0.35 | 97 | 1010.0 |
| 20260509190402 | 54 | 45 | 0.0 | 1.7 | 0.00 | 0.35 | 0.35 | 98 | 1010.0 |
| 20260509185900 | 54 | 45 | 0.9 | 0.9 | 0.00 | 0.35 | 0.35 | 98 | 1010.1 |
| 20260509185356 | 54 | 42 | 0.9 | 0.9 | 0.00 | 0.35 | 0.35 | 99 | 1010.2 |
| 20260509184853 | 54 | 22 | 0.9 | 1.7 | 0.07 | 0.35 | 0.35 | 99 | 1010.3 |
| 20260509184350 | 54 | 323 | 0.9 | 1.7 | 0.00 | 0.34 | 0.34 | 99 | 1010.2 |
| 20260509183847 | 54 | 20 | 0.0 | 0.9 | 0.05 | 0.34 | 0.34 | 99 | 1010.1 |
| 20260509183342 | 54 | 51 | 0.9 | 1.7 | 0.05 | 0.34 | 0.34 | 98 | 1010.1 |
| 20260509182838 | 55 | 44 | 0.0 | 0.9 | 0.00 | 0.33 | 0.33 | 99 | 1010.2 |
| 20260509182336 | 54 | 44 | 0.0 | 0.9 | 0.07 | 0.33 | 0.33 | 98 | 1010.2 |
| 20260509181833 | 54 | 23 | 0.0 | 2.6 | 0.07 | 0.33 | 0.33 | 99 | 1010.1 |
| 20260509181330 | 54 | 3 | 0.9 | 0.9 | 0.00 | 0.32 | 0.32 | 99 | 1010.1 |
| 20260509180827 | 54 | 81 | 1.7 | 2.6 | 0.00 | 0.32 | 0.32 | 99 | 1010.2 |
| 20260509180323 | 53 | 44 | 0.9 | 1.7 | 0.05 | 0.32 | 0.32 | 99 | 1010.3 |
| 20260509175820 | 53 | 176 | 1.7 | 2.6 | 0.00 | 0.31 | 0.31 | 99 | 1010.1 |
| 20260509175316 | 53 | 175 | 2.6 | 4.3 | 0.07 | 0.31 | 0.31 | 99 | 1010.3 |
| 20260509174812 | 53 | 33 | 0.0 | 0.9 | 0.07 | 0.31 | 0.31 | 99 | 1010.1 |
| 20260509174308 | 53 | 40 | 0.0 | 0.9 | 0.00 | 0.30 | 0.30 | 99 | 1010.2 |
| 20260509173804 | 53 | 42 | 0.0 | 0.0 | 0.00 | 0.30 | 0.30 | 99 | 1010.2 |
| 20260509173300 | 53 | 43 | 0.0 | 0.9 | 0.00 | 0.30 | 0.30 | 99 | 1010.2 |
| 20260509172756 | 53 | 37 | 0.9 | 2.6 | 0.07 | 0.30 | 0.30 | 99 | 1010.2 |
| 20260509172253 | 53 | 38 | 0.0 | 0.0 | 0.12 | 0.30 | 0.30 | 99 | 1010.2 |
| 20260509171748 | 53 | 40 | 0.0 | 0.9 | 0.05 | 0.29 | 0.29 | 99 | 1010.2 |
| 20260509171245 | 53 | 160 | 2.6 | 4.3 | 0.07 | 0.28 | 0.28 | 99 | 1010.2 |
| 20260509170741 | 53 | 63 | 0.9 | 1.7 | 0.07 | 0.28 | 0.28 | 99 | 1010.3 |
| 20260509170237 | 53 | 38 | 0.0 | 0.9 | 0.05 | 0.27 | 0.27 | 99 | 1010.2 |
| 20260509165736 | 53 | 33 | 0.9 | 2.6 | 0.05 | 0.27 | 0.27 | 99 | 1010.1 |
| 20260509165231 | 53 | 45 | 0.0 | 0.9 | 0.00 | 0.26 | 0.26 | 99 | 1010.2 |
| 20260509164727 | 53 | 61 | 0.9 | 2.6 | 0.00 | 0.26 | 0.26 | 99 | 1010.3 |
| 20260509164223 | 53 | 52 | 0.9 | 0.9 | 0.00 | 0.26 | 0.26 | 99 | 1010.3 |
| 20260509163721 | 53 | 46 | 0.9 | 2.6 | 0.00 | 0.26 | 0.26 | 99 | 1010.4 |
| 20260509163217 | 53 | 54 | 0.9 | 0.9 | 0.00 | 0.26 | 0.26 | 99 | 1010.3 |
| 20260509162715 | 53 | 54 | 0.0 | 0.9 | 0.07 | 0.26 | 0.26 | 99 | 1010.3 |
| 20260509162210 | 53 | 53 | 0.0 | 0.9 | 0.00 | 0.25 | 0.25 | 99 | 1010.6 |
| 20260509161706 | 53 | 43 | 0.9 | 1.7 | 0.00 | 0.25 | 0.25 | 99 | 1010.6 |
| 20260509161202 | 53 | 46 | 0.0 | 1.7 | 0.00 | 0.25 | 0.25 | 99 | 1010.7 |
| 20260509160657 | 53 | 52 | 0.0 | 0.9 | 0.05 | 0.25 | 0.25 | 99 | 1010.8 |
| 20260509160154 | 53 | 52 | 0.0 | 0.9 | 0.05 | 0.25 | 0.25 | 99 | 1010.8 |
| 20260509155649 | 53 | 44 | 0.9 | 0.9 | 0.07 | 0.24 | 0.24 | 99 | 1010.7 |
| 20260509155146 | 53 | 44 | 0.9 | 0.9 | 0.07 | 0.24 | 0.24 | 99 | 1010.5 |
| 20260509154641 | 53 | 50 | 1.7 | 1.7 | 0.00 | 0.23 | 0.23 | 99 | 1010.7 |
| 20260509154139 | 53 | 42 | 0.9 | 4.3 | 0.00 | 0.23 | 0.23 | 99 | 1010.7 |
| 20260509153636 | 53 | 26 | 0.0 | 1.7 | 0.00 | 0.23 | 0.23 | 99 | 1010.7 |
| 20260509153133 | 53 | 38 | 0.0 | 2.6 | 0.00 | 0.23 | 0.23 | 99 | 1010.6 |
| 20260509152628 | 53 | 59 | 2.6 | 5.2 | 0.00 | 0.23 | 0.23 | 99 | 1010.6 |
| 20260509152126 | 52 | 44 | 0.0 | 4.3 | 0.00 | 0.23 | 0.23 | 99 | 1010.7 |
| 20260509151622 | 52 | 305 | 0.9 | 1.7 | 0.00 | 0.23 | 0.23 | 99 | 1010.9 |
| 20260509151120 | 52 | 123 | 1.7 | 2.6 | 0.00 | 0.23 | 0.23 | 99 | 1010.7 |
| 20260509150618 | 52 | 171 | 1.7 | 2.6 | 0.00 | 0.23 | 0.23 | 99 | 1010.9 |
| 20260509150116 | 52 | 89 | 2.6 | 2.6 | 0.05 | 0.23 | 0.23 | 99 | 1010.9 |
| 20260509145611 | 52 | 99 | 0.9 | 4.3 | 0.05 | 0.23 | 0.23 | 99 | 1010.8 |
| 20260509145107 | 52 | 160 | 1.7 | 4.3 | 0.00 | 0.22 | 0.22 | 99 | 1010.8 |
| 20260509144604 | 52 | 34 | 0.0 | 1.7 | 0.00 | 0.22 | 0.22 | 99 | 1011.0 |
| 20260509144101 | 51 | 31 | 0.0 | 0.9 | 0.00 | 0.22 | 0.22 | 99 | 1011.1 |
| 20260509143558 | 51 | 66 | 1.7 | 4.3 | 0.00 | 0.22 | 0.22 | 99 | 1011.1 |
| 20260509143055 | 51 | 126 | 2.6 | 5.2 | 0.07 | 0.22 | 0.22 | 99 | 1011.3 |
| 20260509142550 | 51 | 78 | 1.7 | 1.7 | 0.07 | 0.22 | 0.22 | 99 | 1011.4 |
| 20260509142047 | 51 | 30 | 0.0 | 1.7 | 0.00 | 0.21 | 0.21 | 99 | 1011.3 |
| 20260509141543 | 51 | 26 | 0.0 | 0.9 | 0.00 | 0.21 | 0.21 | 99 | 1011.4 |
| 20260509141040 | 51 | 37 | 0.0 | 0.9 | 0.05 | 0.21 | 0.21 | 99 | 1011.2 |
| 20260509140537 | 51 | 34 | 0.9 | 2.6 | 0.05 | 0.21 | 0.21 | 99 | 1011.4 |
| 20260509140035 | 51 | 38 | 0.0 | 1.7 | 0.00 | 0.20 | 0.20 | 99 | 1011.3 |
| 20260509135531 | 51 | 34 | 0.9 | 0.9 | 0.00 | 0.20 | 0.20 | 99 | 1011.5 |
| 20260509135029 | 51 | 16 | 0.0 | 0.0 | 0.07 | 0.20 | 0.20 | 99 | 1011.5 |
| 20260509134526 | 51 | 34 | 0.0 | 0.9 | 0.07 | 0.20 | 0.20 | 99 | 1011.5 |
| 20260509134024 | 51 | 35 | 0.0 | 0.9 | 0.00 | 0.19 | 0.19 | 99 | 1011.5 |
| 20260509133520 | 51 | 42 | 0.0 | 0.9 | 0.00 | 0.19 | 0.19 | 99 | 1011.3 |
| 20260509133018 | 51 | 40 | 0.0 | 0.9 | 0.00 | 0.19 | 0.19 | 99 | 1011.3 |
| 20260509132516 | 50 | 36 | 0.0 | 0.9 | 0.00 | 0.19 | 0.19 | 99 | 1011.2 |
| 20260509132014 | 51 | 31 | 0.0 | 0.0 | 0.00 | 0.19 | 0.19 | 99 | 1011.4 |
| 20260509131510 | 50 | 38 | 0.0 | 0.9 | 0.00 | 0.19 | 0.19 | 99 | 1011.2 |
| 20260509131007 | 51 | 190 | 1.7 | 1.7 | 0.00 | 0.19 | 0.19 | 99 | 1011.2 |
| 20260509130502 | 50 | 27 | 0.0 | 0.9 | 0.00 | 0.19 | 0.19 | 99 | 1011.3 |
| 20260509125959 | 50 | 11 | 0.0 | 0.9 | 0.00 | 0.19 | 0.19 | 99 | 1011.3 |
| 20260509125456 | 50 | 51 | 0.9 | 1.7 | 0.00 | 0.19 | 0.19 | 99 | 1011.3 |
| 20260509124951 | 50 | 42 | 0.0 | 1.7 | 0.00 | 0.19 | 0.19 | 99 | 1011.4 |
| 20260509124449 | 50 | 35 | 0.0 | 1.7 | 0.00 | 0.19 | 0.19 | 99 | 1011.4 |
| 20260509123946 | 50 | 42 | 0.0 | 0.9 | 0.00 | 0.19 | 0.19 | 99 | 1011.4 |
| 20260509123444 | 50 | 14 | 0.0 | 0.9 | 0.00 | 0.19 | 0.19 | 99 | 1011.3 |
| 20260509122939 | 50 | 34 | 0.0 | 0.9 | 0.00 | 0.19 | 0.19 | 99 | 1011.5 |
| 20260509122437 | 50 | 44 | 0.0 | 1.7 | 0.00 | 0.19 | 0.19 | 99 | 1011.7 |
| 20260509121933 | 50 | 26 | 0.0 | 0.9 | 0.00 | 0.19 | 0.19 | 99 | 1011.6 |
| 20260509121430 | 50 | 29 | 0.0 | 0.9 | 0.00 | 0.19 | 0.19 | 99 | 1011.7 |
| 20260509120928 | 50 | 351 | 0.9 | 0.9 | 0.00 | 0.19 | 0.19 | 99 | 1011.9 |
| 20260509120426 | 50 | 29 | 0.0 | 0.0 | 0.05 | 0.19 | 0.19 | 99 | 1011.8 |
| 20260509115924 | 50 | 40 | 0.0 | 0.9 | 0.05 | 0.19 | 0.19 | 99 | 1011.8 |
| 20260509115421 | 49 | 34 | 0.0 | 0.9 | 0.00 | 0.18 | 0.18 | 99 | 1011.7 |
| 20260509114918 | 49 | 44 | 0.0 | 0.0 | 0.00 | 0.18 | 0.18 | 99 | 1011.7 |
| 20260509114417 | 49 | 44 | 0.0 | 0.9 | 0.00 | 0.18 | 0.18 | 99 | 1011.7 |
| 20260509113916 | 49 | 39 | 0.0 | 0.0 | 0.00 | 0.18 | 0.18 | 99 | 1011.7 |
| 20260509113413 | 50 | 27 | 0.0 | 0.9 | 0.00 | 0.18 | 0.18 | 99 | 1011.8 |
| 20260509112909 | 49 | 47 | 0.0 | 0.9 | 0.00 | 0.18 | 0.18 | 99 | 1011.8 |
| 20260509112407 | 50 | 23 | 0.0 | 0.9 | 0.00 | 0.18 | 0.18 | 99 | 1011.8 |
| 20260509111904 | 49 | 43 | 0.0 | 0.9 | 0.00 | 0.18 | 0.18 | 99 | 1011.7 |
| 20260509111400 | 49 | 65 | 0.0 | 0.9 | 0.00 | 0.18 | 0.18 | 99 | 1011.9 |
| 20260509110858 | 49 | 38 | 0.0 | 2.6 | 0.00 | 0.18 | 0.18 | 99 | 1011.7 |
| 20260509110354 | 49 | 29 | 0.9 | 1.7 | 0.00 | 0.18 | 0.18 | 99 | 1011.9 |
| 20260509105852 | 49 | 43 | 0.9 | 0.9 | 0.00 | 0.18 | 0.18 | 99 | 1011.8 |
| 20260509105350 | 49 | 26 | 0.0 | 0.9 | 0.00 | 0.18 | 0.18 | 99 | 1011.8 |
| 20260509104847 | 49 | 23 | 0.0 | 0.9 | 0.00 | 0.18 | 0.18 | 99 | 1011.8 |
| 20260509104343 | 49 | 41 | 0.0 | 0.9 | 0.07 | 0.18 | 0.18 | 99 | 1011.8 |
| 20260509103841 | 49 | 35 | 0.9 | 1.7 | 0.07 | 0.18 | 0.18 | 99 | 1011.7 |
| 20260509103338 | 49 | 88 | 1.7 | 4.3 | 0.07 | 0.17 | 0.17 | 99 | 1011.7 |
| 20260509102837 | 49 | 34 | 0.0 | 1.7 | 0.07 | 0.17 | 0.17 | 99 | 1011.6 |
| 20260509102334 | 49 | 53 | 0.9 | 0.9 | 0.05 | 0.16 | 0.16 | 99 | 1011.7 |
| 20260509101829 | 49 | 35 | 0.0 | 1.7 | 0.05 | 0.16 | 0.16 | 99 | 1011.6 |
| 20260509101326 | 49 | 25 | 0.0 | 0.9 | 0.12 | 0.15 | 0.15 | 99 | 1011.5 |
| 20260509100824 | 49 | 36 | 0.0 | 0.9 | 0.12 | 0.15 | 0.15 | 99 | 1011.7 |
| 20260509100321 | 49 | 73 | 0.9 | 1.7 | 0.12 | 0.13 | 0.13 | 99 | 1011.7 |
| 20260509095817 | 49 | 44 | 0.9 | 0.9 | 0.12 | 0.12 | 0.12 | 99 | 1012.0 |
| 20260509095315 | 49 | 170 | 0.0 | 0.9 | 0.07 | 0.11 | 0.11 | 99 | 1011.8 |
| 20260509094812 | 49 | 170 | 0.9 | 1.7 | 0.00 | 0.10 | 0.10 | 99 | 1011.8 |
| 20260509094308 | 49 | 28 | 0.0 | 0.9 | 0.00 | 0.10 | 0.10 | 99 | 1011.8 |
| 20260509093806 | 49 | 31 | 0.0 | 0.0 | 0.00 | 0.10 | 0.10 | 99 | 1011.6 |
| 20260509093303 | 49 | 31 | 0.0 | 0.0 | 0.00 | 0.10 | 0.10 | 99 | 1011.6 |
| 20260509092802 | 49 | 30 | 0.0 | 0.0 | 0.00 | 0.10 | 0.10 | 99 | 1011.6 |
| 20260509092259 | 49 | 30 | 0.0 | 0.0 | 0.00 | 0.10 | 0.10 | 99 | 1011.6 |
| 20260509091757 | 49 | 30 | 0.0 | 0.0 | 0.00 | 0.10 | 0.10 | 99 | 1011.7 |
| 20260509091253 | 49 | 30 | 0.0 | 0.0 | 0.00 | 0.10 | 0.10 | 99 | 1011.7 |
| 20260509090751 | 49 | 30 | 0.0 | 0.0 | 0.00 | 0.10 | 0.10 | 99 | 1011.8 |
| 20260509090248 | 49 | 31 | 0.0 | 0.9 | 0.00 | 0.10 | 0.10 | 99 | 1011.6 |
| 20260509085745 | 49 | 48 | 0.0 | 0.9 | 0.05 | 0.10 | 0.10 | 99 | 1011.8 |
| 20260509085243 | 49 | 48 | 0.0 | 0.9 | 0.05 | 0.10 | 0.10 | 99 | 1011.7 |
| 20260509084739 | 49 | 48 | 0.0 | 0.0 | 0.00 | 0.09 | 0.09 | 99 | 1011.9 |
| 20260509084236 | 49 | 48 | 0.0 | 0.0 | 0.00 | 0.09 | 0.09 | 99 | 1011.8 |
| 20260509083734 | 49 | 48 | 0.0 | 0.0 | 0.00 | 0.09 | 0.09 | 99 | 1011.8 |
| 20260509083230 | 49 | 48 | 0.0 | 0.0 | 0.00 | 0.09 | 0.09 | 99 | 1011.9 |
| 20260509082727 | 49 | 48 | 0.0 | 0.0 | 0.00 | 0.09 | 0.09 | 99 | 1012.0 |
| 20260509082224 | 49 | 48 | 0.0 | 0.0 | 0.00 | 0.09 | 0.09 | 99 | 1011.9 |
| 20260509081720 | 49 | 48 | 0.0 | 0.0 | 0.00 | 0.09 | 0.09 | 99 | 1012.0 |
| 20260509081218 | 49 | 48 | 0.0 | 0.0 | 0.00 | 0.09 | 0.09 | 99 | 1011.9 |
| 20260509080716 | 49 | 48 | 0.0 | 0.0 | 0.00 | 0.09 | 0.09 | 99 | 1011.9 |
| 20260509080213 | 49 | 48 | 0.0 | 0.9 | 0.00 | 0.09 | 0.09 | 99 | 1012.1 |
| 20260509075711 | 49 | 48 | 0.0 | 0.9 | 0.00 | 0.09 | 0.09 | 99 | 1011.9 |
| 20260509075209 | 49 | 48 | 0.0 | 0.0 | 0.07 | 0.09 | 0.09 | 99 | 1012.0 |
| 20260509074705 | 49 | 48 | 0.0 | 0.9 | 0.07 | 0.09 | 0.09 | 99 | 1012.3 |
| 20260509074203 | 49 | 48 | 0.0 | 0.9 | 0.00 | 0.08 | 0.08 | 99 | 1012.4 |
| 20260509073659 | 49 | 53 | 0.0 | 1.7 | 0.05 | 0.08 | 0.08 | 99 | 1012.5 |
| 20260509073155 | 49 | 49 | 0.0 | 0.0 | 0.05 | 0.08 | 0.08 | 99 | 1012.5 |
| 20260509072652 | 49 | 49 | 0.0 | 0.0 | 0.00 | 0.07 | 0.07 | 99 | 1012.4 |
| 20260509072149 | 49 | 49 | 0.0 | 0.0 | 0.00 | 0.07 | 0.07 | 99 | 1012.5 |
| 20260509071645 | 49 | 49 | 0.0 | 0.0 | 0.00 | 0.07 | 0.07 | 99 | 1012.5 |
| 20260509071143 | 49 | 50 | 0.0 | 0.0 | 0.07 | 0.07 | 0.07 | 99 | 1012.3 |
| 20260509070640 | 49 | 49 | 0.0 | 0.9 | 0.07 | 0.07 | 0.07 | 99 | 1012.6 |
| 20260509070136 | 49 | 37 | 0.0 | 0.0 | 0.00 | 0.06 | 0.06 | 99 | 1012.6 |
| 20260509065632 | 49 | 37 | 0.0 | 0.9 | 0.00 | 0.06 | 0.06 | 99 | 1012.6 |
| 20260509065128 | 49 | 35 | 0.0 | 0.0 | 0.05 | 0.06 | 0.06 | 99 | 1012.6 |
| 20260509064625 | 49 | 33 | 0.0 | 0.0 | 0.05 | 0.06 | 0.06 | 99 | 1012.7 |
| 20260509064124 | 49 | 33 | 0.0 | 0.0 | 0.00 | 0.05 | 0.05 | 99 | 1012.7 |
| 20260509063620 | 49 | 34 | 0.0 | 0.0 | 0.07 | 0.05 | 0.05 | 99 | 1012.7 |
| 20260509063117 | 49 | 33 | 0.0 | 0.0 | 0.00 | 0.04 | 0.04 | 99 | 1012.7 |
| 20260509062614 | 49 | 33 | 0.0 | 0.0 | 0.00 | 0.04 | 0.04 | 99 | 1012.8 |
| 20260509062111 | 49 | 34 | 0.0 | 0.0 | 0.00 | 0.04 | 0.04 | 99 | 1012.6 |
| 20260509061608 | 49 | 34 | 0.0 | 0.9 | 0.07 | 0.04 | 0.04 | 99 | 1012.6 |
| 20260509061105 | 49 | 10 | 0.9 | 0.9 | 0.07 | 0.04 | 0.04 | 99 | 1012.7 |
| 20260509060603 | 49 | 58 | 0.0 | 0.9 | 0.00 | 0.03 | 0.03 | 99 | 1012.5 |
| 20260509060058 | 49 | 28 | 0.0 | 0.9 | 0.00 | 0.03 | 0.03 | 99 | 1012.7 |
| 20260509055554 | 49 | 28 | 0.0 | 0.9 | 0.00 | 0.03 | 0.03 | 99 | 1012.7 |
| 20260509055050 | 49 | 27 | 0.0 | 0.0 | 0.05 | 0.03 | 0.03 | 99 | 1012.8 |
| 20260509054547 | 49 | 28 | 0.0 | 0.9 | 0.05 | 0.03 | 0.03 | 99 | 1013.0 |
| 20260509054045 | 49 | 25 | 0.0 | 0.0 | 0.00 | 0.02 | 0.02 | 99 | 1012.9 |
| 20260509053543 | 49 | 25 | 0.0 | 0.0 | 0.00 | 0.02 | 0.02 | 99 | 1013.0 |
| 20260509053040 | 49 | 19 | 0.0 | 0.9 | 0.07 | 0.02 | 0.02 | 99 | 1013.1 |
| 20260509052538 | 49 | 19 | 0.0 | 0.0 | 0.07 | 0.02 | 0.02 | 99 | 1013.2 |
| 20260509052035 | 49 | 20 | 0.0 | 0.9 | 0.00 | 0.01 | 0.01 | 99 | 1013.1 |
| 20260509051533 | 49 | 348 | 0.0 | 0.9 | 0.00 | 0.01 | 0.01 | 99 | 1013.0 |
| 20260509051030 | 49 | 347 | 0.0 | 0.0 | 0.00 | 0.01 | 0.01 | 99 | 1013.0 |
| 20260509050526 | 49 | 347 | 0.0 | 0.9 | 0.05 | 0.01 | 0.01 | 99 | 1012.9 |
| 20260509050017 | 49 | 37 | 0.0 | 0.0 | 0.05 | 0.01 | 0.01 | 99 | 1012.8 |
| 20260509045515 | 49 | 36 | 0.0 | 0.0 | 0.00 | 0.00 | 0.00 | 99 | 1012.7 |
| 20260509045011 | 48 | 37 | 0.0 | 0.0 | 0.00 | 0.00 | 0.00 | 99 | 1013.0 |
| 20260509044509 | 49 | 25 | 0.9 | 0.9 | 0.00 | 0.00 | 0.00 | 99 | 1012.9 |
| 20260509044006 | 48 | 24 | 0.0 | 0.0 | 0.00 | 0.00 | 0.00 | 99 | 1013.1 |
| 20260509043502 | 48 | 24 | 0.0 | 0.0 | 0.00 | 0.00 | 0.00 | 98 | 1012.8 |
| 20260509042957 | 48 | 24 | 0.0 | 0.0 | 0.00 | 0.00 | 0.00 | 98 | 1012.7 |
| 20260509042455 | 48 | 13 | 0.0 | 0.0 | 0.00 | 0.00 | 0.00 | 98 | 1012.8 |
| 20260509041950 | 48 | 13 | 0.0 | 0.9 | 0.00 | 0.00 | 0.00 | 98 | 1013.0 |
| 20260509041447 | 48 | 14 | 0.0 | 0.9 | 0.00 | 0.00 | 0.00 | 98 | 1012.8 |
| 20260509040946 | 49 | 29 | 0.0 | 0.0 | 0.00 | 0.00 | 0.00 | 97 | 1012.7 |
| 20260509040444 | 48 | 33 | 0.9 | 0.9 | 0.00 | 0.00 | 0.00 | 97 | 1012.7 |
| 20260509035940 | 48 | 34 | 0.0 | 0.0 | 0.00 | 0.02 | 0.02 | 97 | 1012.8 |
| 20260509035437 | 48 | 36 | 0.9 | 0.9 | 0.00 | 0.02 | 0.02 | 98 | 1013.0 |
| 20260509034933 | 48 | 27 | 0.0 | 0.0 | 0.00 | 0.02 | 0.02 | 97 | 1013.0 |
| 20260509034431 | 48 | 27 | 0.0 | 0.9 | 0.00 | 0.02 | 0.02 | 97 | 1013.0 |
| 20260509033928 | 48 | 22 | 0.9 | 0.9 | 0.00 | 0.02 | 0.02 | 97 | 1012.9 |
| 20260509033425 | 48 | 22 | 0.0 | 0.0 | 0.00 | 0.02 | 0.02 | 97 | 1013.0 |
| 20260509032921 | 48 | 25 | 0.0 | 0.9 | 0.00 | 0.02 | 0.02 | 97 | 1013.0 |
| 20260509032419 | 48 | 25 | 0.0 | 0.9 | 0.00 | 0.02 | 0.02 | 96 | 1013.1 |
| 20260509031917 | 48 | 27 | 0.0 | 0.9 | 0.00 | 0.02 | 0.02 | 96 | 1013.0 |
| 20260509031414 | 48 | 28 | 0.0 | 0.9 | 0.00 | 0.02 | 0.02 | 96 | 1012.9 |
| 20260509030911 | 48 | 27 | 0.0 | 0.0 | 0.00 | 0.02 | 0.02 | 96 | 1012.9 |
| 20260509030409 | 48 | 28 | 0.0 | 0.9 | 0.00 | 0.02 | 0.02 | 95 | 1013.0 |
| 20260509025906 | 48 | 28 | 0.0 | 0.9 | 0.00 | 0.02 | 0.02 | 95 | 1012.9 |
| 20260509025402 | 49 | 29 | 0.0 | 0.9 | 0.00 | 0.02 | 0.02 | 94 | 1012.8 |
| 20260509024857 | 49 | 29 | 0.9 | 0.9 | 0.00 | 0.02 | 0.02 | 94 | 1012.9 |
| 20260509024353 | 49 | 28 | 0.0 | 0.9 | 0.00 | 0.02 | 0.02 | 94 | 1013.0 |
| 20260509023850 | 49 | 27 | 0.0 | 0.0 | 0.00 | 0.02 | 0.02 | 93 | 1013.1 |
| 20260509023348 | 49 | 28 | 0.9 | 0.9 | 0.00 | 0.02 | 0.02 | 93 | 1013.1 |
| 20260509022844 | 50 | 20 | 0.0 | 0.9 | 0.00 | 0.02 | 0.02 | 92 | 1013.0 |
| 20260509022341 | 50 | 20 | 0.0 | 0.0 | 0.00 | 0.02 | 0.02 | 92 | 1012.9 |
| 20260509021838 | 50 | 19 | 0.0 | 0.9 | 0.00 | 0.02 | 0.02 | 91 | 1012.7 |
| 20260509021335 | 50 | 46 | 0.0 | 0.0 | 0.00 | 0.02 | 0.02 | 91 | 1012.9 |
| 20260509020833 | 50 | 46 | 0.0 | 0.9 | 0.00 | 0.02 | 0.02 | 90 | 1012.9 |
| 20260509020331 | 51 | 46 | 0.0 | 0.9 | 0.00 | 0.02 | 0.02 | 89 | 1012.6 |
| 20260509015828 | 52 | 47 | 0.9 | 0.9 | 0.00 | 0.02 | 0.02 | 88 | 1012.9 |
| 20260509015326 | 52 | 46 | 0.0 | 0.9 | 0.00 | 0.02 | 0.02 | 88 | 1012.8 |
| 20260509014823 | 52 | 3 | 0.0 | 0.9 | 0.00 | 0.02 | 0.02 | 87 | 1012.9 |
| 20260509014320 | 52 | 5 | 0.0 | 0.9 | 0.00 | 0.02 | 0.02 | 86 | 1012.8 |
| 20260509013816 | 52 | 43 | 0.9 | 0.9 | 0.00 | 0.02 | 0.02 | 89 | 1012.8 |
| 20260509013313 | 52 | 37 | 0.0 | 2.6 | 0.00 | 0.02 | 0.02 | 89 | 1012.8 |
| 20260509012809 | 51 | 60 | 0.0 | 0.9 | 0.00 | 0.02 | 0.02 | 90 | 1012.7 |
| 20260509012307 | 51 | 61 | 0.9 | 0.9 | 0.00 | 0.02 | 0.02 | 91 | 1012.8 |
| 20260509011803 | 51 | 60 | 0.0 | 0.0 | 0.00 | 0.02 | 0.02 | 90 | 1012.5 |
| 20260509011300 | 51 | 60 | 0.0 | 0.9 | 0.00 | 0.02 | 0.02 | 91 | 1012.5 |
| 20260509010758 | 51 | 60 | 0.0 | 0.0 | 0.00 | 0.02 | 0.02 | 90 | 1012.6 |
| 20260509010254 | 51 | 60 | 0.0 | 0.0 | 0.00 | 0.02 | 0.02 | 90 | 1012.3 |
| 20260509005752 | 51 | 60 | 0.0 | 0.9 | 0.00 | 0.02 | 0.02 | 89 | 1012.2 |
| 20260509005244 | 51 | 60 | 0.0 | 0.0 | 0.00 | 0.02 | 0.02 | 88 | 1012.4 |
| 20260509004743 | 51 | 60 | 0.0 | 0.0 | 0.00 | 0.02 | 0.02 | 88 | 1012.2 |
| 20260509004241 | 52 | 60 | 0.0 | 0.0 | 0.00 | 0.02 | 0.02 | 87 | 1012.2 |
| 20260509003739 | 51 | 61 | 0.0 | 0.0 | 0.00 | 0.02 | 0.02 | 86 | 1012.3 |
| 20260509003236 | 51 | 61 | 0.0 | 0.9 | 0.00 | 0.02 | 0.02 | 86 | 1012.0 |
| 20260509002733 | 52 | 61 | 0.0 | 0.0 | 0.00 | 0.02 | 0.02 | 85 | 1012.1 |
| 20260509002231 | 52 | 61 | 0.0 | 0.9 | 0.00 | 0.02 | 0.02 | 84 | 1012.0 |
| 20260509001729 | 52 | 61 | 0.9 | 0.9 | 0.00 | 0.02 | 0.02 | 83 | 1012.0 |
| 20260509001224 | 52 | 61 | 0.0 | 0.9 | 0.00 | 0.02 | 0.02 | 81 | 1011.8 |
| 20260509000722 | 53 | 61 | 0.0 | 0.0 | 0.00 | 0.02 | 0.02 | 78 | 1011.8 |
| 20260509000219 | 53 | 61 | 0.0 | 0.0 | 0.00 | 0.02 | 0.02 | 78 | 1011.8 |
| 20260508235716 | 54 | 61 | 0.9 | 0.9 | 0.00 | 0.02 | 0.02 | 76 | 1011.5 |
| 20260508235213 | 55 | 61 | 0.0 | 0.9 | 0.00 | 0.02 | 0.02 | 75 | 1011.8 |
| 20260508234710 | 55 | 82 | 1.7 | 1.7 | 0.00 | 0.02 | 0.02 | 71 | 1011.7 |
| 20260508234206 | 55 | 62 | 0.9 | 0.9 | 0.00 | 0.02 | 0.02 | 72 | 1011.7 |
| 20260508233700 | 55 | 65 | 0.0 | 1.7 | 0.00 | 0.02 | 0.02 | 74 | 1011.6 |
| 20260508233157 | 55 | 64 | 0.0 | 0.9 | 0.00 | 0.02 | 0.02 | 75 | 1011.5 |
| 20260508232655 | 56 | 64 | 0.0 | 1.7 | 0.00 | 0.02 | 0.02 | 73 | 1011.7 |
| 20260508232151 | 56 | 61 | 0.9 | 1.7 | 0.00 | 0.02 | 0.02 | 73 | 1011.6 |
| 20260508231649 | 56 | 65 | 0.9 | 1.7 | 0.00 | 0.02 | 0.02 | 71 | 1011.5 |
| 20260508231146 | 55 | 63 | 0.9 | 1.7 | 0.00 | 0.02 | 0.02 | 72 | 1011.4 |
| 20260508230642 | 56 | 58 | 0.9 | 0.9 | 0.00 | 0.02 | 0.02 | 72 | 1011.4 |
| 20260508230139 | 56 | 73 | 0.9 | 2.6 | 0.00 | 0.02 | 0.02 | 71 | 1011.4 |
| 20260508225637 | 56 | 104 | 1.7 | 1.7 | 0.00 | 0.02 | 0.02 | 71 | 1011.5 |
| 20260508225132 | 56 | 61 | 0.9 | 2.6 | 0.00 | 0.02 | 0.02 | 73 | 1011.5 |
| 20260508224631 | 56 | 105 | 1.7 | 1.7 | 0.00 | 0.02 | 0.02 | 72 | 1011.5 |
| 20260508224128 | 56 | 128 | 1.7 | 2.6 | 0.00 | 0.02 | 0.02 | 70 | 1011.4 |
| 20260508223626 | 56 | 51 | 0.9 | 0.9 | 0.00 | 0.02 | 0.02 | 69 | 1011.3 |
| 20260508223122 | 57 | 38 | 1.7 | 1.7 | 0.00 | 0.02 | 0.02 | 70 | 1011.3 |
| 20260508222620 | 56 | 69 | 1.7 | 1.7 | 0.00 | 0.02 | 0.02 | 70 | 1011.5 |
| 20260508222117 | 57 | 87 | 1.7 | 2.6 | 0.00 | 0.02 | 0.02 | 70 | 1011.7 |
| 20260508221613 | 57 | 120 | 2.6 | 4.3 | 0.00 | 0.02 | 0.02 | 63 | 1011.7 |
| 20260508221109 | 58 | 97 | 1.7 | 1.7 | 0.00 | 0.02 | 0.02 | 62 | 1011.6 |
| 20260508220606 | 58 | 344 | 0.9 | 1.7 | 0.00 | 0.02 | 0.02 | 55 | 1011.6 |
| 20260508215559 | 58 | 30 | 0.0 | 0.9 | 0.00 | 0.02 | 0.02 | 56 | 1011.2 |
| 20260508215055 | 59 | 352 | 0.9 | 0.9 | 0.00 | 0.02 | 0.02 | 54 | 1011.4 |
| 20260508214553 | 59 | 176 | 2.6 | 2.6 | 0.00 | 0.02 | 0.02 | 56 | 1011.2 |
| 20260508214049 | 60 | 315 | 0.9 | 1.7 | 0.00 | 0.02 | 0.02 | 53 | 1011.3 |
| 20260508213546 | 59 | 39 | 1.7 | 1.7 | 0.00 | 0.02 | 0.02 | 52 | 1011.2 |
| 20260508213042 | 60 | 94 | 1.7 | 2.6 | 0.00 | 0.02 | 0.02 | 55 | 1011.2 |
| 20260508212539 | 59 | 311 | 0.0 | 0.9 | 0.00 | 0.02 | 0.02 | 55 | 1011.3 |
| 20260508212035 | 60 | 177 | 2.6 | 2.6 | 0.00 | 0.02 | 0.02 | 55 | 1011.4 |
| 20260508211531 | 58 | 355 | 0.0 | 0.9 | 0.00 | 0.02 | 0.02 | 54 | 1011.6 |
| 20260508211028 | 60 | 337 | 0.0 | 1.7 | 0.00 | 0.02 | 0.02 | 54 | 1011.7 |
| 20260508210524 | 58 | 7 | 0.0 | 0.9 | 0.00 | 0.02 | 0.02 | 55 | 1011.7 |
| 20260508210022 | 58 | 59 | 1.7 | 2.6 | 0.00 | 0.02 | 0.02 | 58 | 1011.8 |
| 20260508205518 | 58 | 21 | 1.7 | 4.3 | 0.00 | 0.02 | 0.02 | 61 | 1011.6 |
| 20260508205014 | 58 | 331 | 0.9 | 4.3 | 0.00 | 0.02 | 0.02 | 56 | 1011.7 |
| 20260508204512 | 59 | 11 | 3.5 | 5.2 | 0.00 | 0.02 | 0.02 | 55 | 1011.9 |
| 20260508204008 | 57 | 331 | 0.9 | 5.2 | 0.00 | 0.02 | 0.02 | 60 | 1011.9 |
| 20260508203504 | 59 | 11 | 0.9 | 5.2 | 0.00 | 0.02 | 0.02 | 60 | 1011.9 |
| 20260508203000 | 57 | 5 | 0.0 | 1.7 | 0.00 | 0.02 | 0.02 | 62 | 1012.1 |
| 20260508202457 | 57 | 30 | 0.0 | 0.9 | 0.00 | 0.02 | 0.02 | 60 | 1012.1 |
| 20260508201954 | 57 | 8 | 0.9 | 0.9 | 0.00 | 0.02 | 0.02 | 62 | 1012.0 |
| 20260508201451 | 56 | 9 | 0.0 | 1.7 | 0.00 | 0.02 | 0.02 | 62 | 1012.2 |